sensor_id;sensor_type;location;lat;lon;timestamp;P1;durP1;ratioP1;P2;durP2;ratioP2
68097;SDS011;54886;47.036;15.466;2022-09-09T00:03:32;1.33;;;1.10;;
68097;SDS011;54886;47.036;15.466;2022-09-09T00:11:05;1.92;;;1.23;;
68097;SDS011;54886;47.036;15.466;2022-09-09T00:14:05;3.20;;;1.30;;
68097;SDS011;54886;47.036;15.466;2022-09-09T00:16:27;5.05;;;1.13;;
68097;SDS011;54886;47.036;15.466;2022-09-09T00:19:15;2.40;;;1.13;;
68097;SDS011;54886;47.036;15.466;2022-09-09T00:21:51;2.33;;;1.25;;
68097;SDS011;54886;47.036;15.466;2022-09-09T00:24:28;1.33;;;1.23;;
68097;SDS011;54886;47.036;15.466;2022-09-09T00:27:01;1.63;;;1.30;;
68097;SDS011;54886;47.036;15.466;2022-09-09T00:29:35;3.50;;;1.33;;
68097;SDS011;54886;47.036;15.466;2022-09-09T00:32:13;2.60;;;1.25;;
68097;SDS011;54886;47.036;15.466;2022-09-09T00:34:47;5.72;;;1.40;;
68097;SDS011;54886;47.036;15.466;2022-09-09T00:37:21;2.35;;;1.30;;
68097;SDS011;54886;47.036;15.466;2022-09-09T00:39:50;1.40;;;1.30;;
68097;SDS011;54886;47.036;15.466;2022-09-09T00:42:26;1.55;;;1.35;;
68097;SDS011;54886;47.036;15.466;2022-09-09T00:45:16;1.75;;;1.30;;
68097;SDS011;54886;47.036;15.466;2022-09-09T00:47:57;1.73;;;1.40;;
68097;SDS011;54886;47.036;15.466;2022-09-09T00:53:32;2.28;;;1.40;;
68097;SDS011;54886;47.036;15.466;2022-09-09T00:58:43;3.95;;;1.20;;
68097;SDS011;54886;47.036;15.466;2022-09-09T01:01:19;3.10;;;1.27;;
68097;SDS011;54886;47.036;15.466;2022-09-09T01:06:19;2.30;;;1.05;;
68097;SDS011;54886;47.036;15.466;2022-09-09T01:11:22;4.70;;;1.17;;
68097;SDS011;54886;47.036;15.466;2022-09-09T01:13:52;4.18;;;1.35;;
68097;SDS011;54886;47.036;15.466;2022-09-09T01:16:24;1.50;;;1.08;;
68097;SDS011;54886;47.036;15.466;2022-09-09T01:18:51;1.63;;;1.30;;
68097;SDS011;54886;47.036;15.466;2022-09-09T01:25:01;3.08;;;1.30;;
68097;SDS011;54886;47.036;15.466;2022-09-09T01:27:06;1.25;;;1.15;;
68097;SDS011;54886;47.036;15.466;2022-09-09T01:29:33;1.65;;;1.55;;
68097;SDS011;54886;47.036;15.466;2022-09-09T01:31:59;1.83;;;1.40;;
68097;SDS011;54886;47.036;15.466;2022-09-09T01:34:28;1.88;;;1.20;;
68097;SDS011;54886;47.036;15.466;2022-09-09T01:39:34;1.85;;;1.40;;
68097;SDS011;54886;47.036;15.466;2022-09-09T01:42:01;5.13;;;1.55;;
68097;SDS011;54886;47.036;15.466;2022-09-09T01:44:28;3.72;;;1.30;;
68097;SDS011;54886;47.036;15.466;2022-09-09T01:46:55;2.65;;;1.60;;
68097;SDS011;54886;47.036;15.466;2022-09-09T01:49:21;3.42;;;1.20;;
68097;SDS011;54886;47.036;15.466;2022-09-09T01:51:49;1.60;;;1.40;;
68097;SDS011;54886;47.036;15.466;2022-09-09T01:54:17;3.10;;;1.52;;
68097;SDS011;54886;47.036;15.466;2022-09-09T02:01:55;3.63;;;1.30;;
68097;SDS011;54886;47.036;15.466;2022-09-09T02:07:02;4.10;;;1.52;;
68097;SDS011;54886;47.036;15.466;2022-09-09T02:09:32;2.10;;;1.40;;
68097;SDS011;54886;47.036;15.466;2022-09-09T02:12:04;1.73;;;1.33;;
68097;SDS011;54886;47.036;15.466;2022-09-09T02:14:38;3.25;;;1.48;;
68097;SDS011;54886;47.036;15.466;2022-09-09T02:17:09;1.48;;;1.38;;
68097;SDS011;54886;47.036;15.466;2022-09-09T02:19:37;4.53;;;1.50;;
68097;SDS011;54886;47.036;15.466;2022-09-09T02:22:07;4.30;;;1.60;;
68097;SDS011;54886;47.036;15.466;2022-09-09T02:24:33;3.75;;;1.50;;
68097;SDS011;54886;47.036;15.466;2022-09-09T02:27:01;2.38;;;1.40;;
68097;SDS011;54886;47.036;15.466;2022-09-09T02:29:38;5.28;;;1.70;;
68097;SDS011;54886;47.036;15.466;2022-09-09T02:32:13;3.28;;;1.60;;
68097;SDS011;54886;47.036;15.466;2022-09-09T02:34:45;3.58;;;1.73;;
68097;SDS011;54886;47.036;15.466;2022-09-09T02:37:15;3.22;;;1.60;;
68097;SDS011;54886;47.036;15.466;2022-09-09T02:39:43;2.75;;;1.60;;
68097;SDS011;54886;47.036;15.466;2022-09-09T02:42:09;2.58;;;1.40;;
68097;SDS011;54886;47.036;15.466;2022-09-09T02:44:34;2.17;;;1.55;;
68097;SDS011;54886;47.036;15.466;2022-09-09T02:52:40;3.03;;;1.60;;
68097;SDS011;54886;47.036;15.466;2022-09-09T02:57:54;6.20;;;1.70;;
68097;SDS011;54886;47.036;15.466;2022-09-09T03:00:25;5.00;;;1.55;;
68097;SDS011;54886;47.036;15.466;2022-09-09T03:02:52;4.50;;;1.80;;
68097;SDS011;54886;47.036;15.466;2022-09-09T03:05:19;5.75;;;1.80;;
68097;SDS011;54886;47.036;15.466;2022-09-09T03:07:45;2.10;;;1.50;;
68097;SDS011;54886;47.036;15.466;2022-09-09T03:10:11;3.03;;;1.60;;
68097;SDS011;54886;47.036;15.466;2022-09-09T03:12:36;2.03;;;1.50;;
68097;SDS011;54886;47.036;15.466;2022-09-09T03:15:02;4.25;;;1.50;;
68097;SDS011;54886;47.036;15.466;2022-09-09T03:17:28;5.22;;;1.48;;
68097;SDS011;54886;47.036;15.466;2022-09-09T03:19:53;2.05;;;1.30;;
68097;SDS011;54886;47.036;15.466;2022-09-09T03:22:20;5.57;;;1.92;;
68097;SDS011;54886;47.036;15.466;2022-09-09T03:24:46;2.13;;;1.58;;
68097;SDS011;54886;47.036;15.466;2022-09-09T03:27:12;1.90;;;1.73;;
68097;SDS011;54886;47.036;15.466;2022-09-09T03:29:39;3.78;;;1.52;;
68097;SDS011;54886;47.036;15.466;2022-09-09T03:32:05;2.22;;;1.30;;
68097;SDS011;54886;47.036;15.466;2022-09-09T03:34:30;4.05;;;1.40;;
68097;SDS011;54886;47.036;15.466;2022-09-09T03:36:56;3.55;;;1.40;;
68097;SDS011;54886;47.036;15.466;2022-09-09T03:39:22;3.05;;;1.45;;
68097;SDS011;54886;47.036;15.466;2022-09-09T03:41:47;6.63;;;1.70;;
68097;SDS011;54886;47.036;15.466;2022-09-09T03:44:13;2.53;;;1.90;;
68097;SDS011;54886;47.036;15.466;2022-09-09T03:46:39;3.47;;;1.75;;
68097;SDS011;54886;47.036;15.466;2022-09-09T03:49:05;5.88;;;2.00;;
68097;SDS011;54886;47.036;15.466;2022-09-09T03:51:30;2.03;;;1.80;;
68097;SDS011;54886;47.036;15.466;2022-09-09T03:53:56;3.17;;;1.90;;
68097;SDS011;54886;47.036;15.466;2022-09-09T03:56:23;2.70;;;1.95;;
68097;SDS011;54886;47.036;15.466;2022-09-09T03:58:48;3.00;;;1.90;;
68097;SDS011;54886;47.036;15.466;2022-09-09T04:01:14;2.97;;;1.92;;
68097;SDS011;54886;47.036;15.466;2022-09-09T04:03:42;4.25;;;1.90;;
68097;SDS011;54886;47.036;15.466;2022-09-09T04:06:13;4.05;;;1.80;;
68097;SDS011;54886;47.036;15.466;2022-09-09T04:08:40;4.65;;;1.88;;
68097;SDS011;54886;47.036;15.466;2022-09-09T04:11:06;5.63;;;2.08;;
68097;SDS011;54886;47.036;15.466;2022-09-09T04:13:33;4.47;;;1.92;;
68097;SDS011;54886;47.036;15.466;2022-09-09T04:16:00;8.90;;;2.25;;
68097;SDS011;54886;47.036;15.466;2022-09-09T04:18:26;3.08;;;2.08;;
68097;SDS011;54886;47.036;15.466;2022-09-09T04:20:53;4.35;;;1.80;;
68097;SDS011;54886;47.036;15.466;2022-09-09T04:23:19;5.40;;;1.90;;
68097;SDS011;54886;47.036;15.466;2022-09-09T04:25:46;2.30;;;1.80;;
68097;SDS011;54886;47.036;15.466;2022-09-09T04:28:13;2.97;;;2.00;;
68097;SDS011;54886;47.036;15.466;2022-09-09T04:30:40;3.92;;;1.80;;
68097;SDS011;54886;47.036;15.466;2022-09-09T04:33:06;4.00;;;2.00;;
68097;SDS011;54886;47.036;15.466;2022-09-09T04:35:32;4.30;;;2.20;;
68097;SDS011;54886;47.036;15.466;2022-09-09T04:37:59;8.35;;;2.40;;
68097;SDS011;54886;47.036;15.466;2022-09-09T04:40:24;4.75;;;2.10;;
68097;SDS011;54886;47.036;15.466;2022-09-09T04:42:50;2.72;;;1.90;;
68097;SDS011;54886;47.036;15.466;2022-09-09T04:45:16;2.97;;;2.10;;
68097;SDS011;54886;47.036;15.466;2022-09-09T04:47:41;3.63;;;2.08;;
68097;SDS011;54886;47.036;15.466;2022-09-09T04:50:07;4.60;;;2.05;;
68097;SDS011;54886;47.036;15.466;2022-09-09T04:52:36;4.60;;;2.10;;
68097;SDS011;54886;47.036;15.466;2022-09-09T04:55:02;6.57;;;2.30;;
68097;SDS011;54886;47.036;15.466;2022-09-09T04:57:28;4.18;;;2.10;;
68097;SDS011;54886;47.036;15.466;2022-09-09T04:59:53;3.13;;;2.10;;
68097;SDS011;54886;47.036;15.466;2022-09-09T05:02:19;6.07;;;2.53;;
68097;SDS011;54886;47.036;15.466;2022-09-09T05:04:44;3.35;;;2.13;;
68097;SDS011;54886;47.036;15.466;2022-09-09T05:07:10;4.55;;;2.20;;
68097;SDS011;54886;47.036;15.466;2022-09-09T05:09:35;4.05;;;2.15;;
68097;SDS011;54886;47.036;15.466;2022-09-09T05:12:01;2.78;;;2.13;;
68097;SDS011;54886;47.036;15.466;2022-09-09T05:14:27;4.53;;;2.17;;
68097;SDS011;54886;47.036;15.466;2022-09-09T05:16:54;3.50;;;2.25;;
68097;SDS011;54886;47.036;15.466;2022-09-09T05:19:20;2.55;;;2.10;;
68097;SDS011;54886;47.036;15.466;2022-09-09T05:21:46;4.15;;;2.15;;
68097;SDS011;54886;47.036;15.466;2022-09-09T05:24:11;4.72;;;2.20;;
68097;SDS011;54886;47.036;15.466;2022-09-09T05:26:37;4.45;;;2.55;;
68097;SDS011;54886;47.036;15.466;2022-09-09T05:29:02;7.82;;;2.40;;
68097;SDS011;54886;47.036;15.466;2022-09-09T05:31:29;8.25;;;2.90;;
68097;SDS011;54886;47.036;15.466;2022-09-09T05:33:55;5.90;;;2.30;;
68097;SDS011;54886;47.036;15.466;2022-09-09T05:36:21;5.82;;;2.40;;
68097;SDS011;54886;47.036;15.466;2022-09-09T05:38:47;5.07;;;2.50;;
68097;SDS011;54886;47.036;15.466;2022-09-09T05:41:14;7.30;;;2.30;;
68097;SDS011;54886;47.036;15.466;2022-09-09T05:43:43;3.75;;;2.03;;
68097;SDS011;54886;47.036;15.466;2022-09-09T05:46:13;4.32;;;2.35;;
68097;SDS011;54886;47.036;15.466;2022-09-09T05:48:44;6.30;;;2.13;;
68097;SDS011;54886;47.036;15.466;2022-09-09T05:51:14;3.08;;;2.17;;
68097;SDS011;54886;47.036;15.466;2022-09-09T05:53:42;2.92;;;2.10;;
68097;SDS011;54886;47.036;15.466;2022-09-09T05:56:09;4.75;;;2.20;;
68097;SDS011;54886;47.036;15.466;2022-09-09T05:58:37;3.78;;;2.10;;
68097;SDS011;54886;47.036;15.466;2022-09-09T06:01:07;5.18;;;2.53;;
68097;SDS011;54886;47.036;15.466;2022-09-09T06:03:39;2.85;;;2.15;;
68097;SDS011;54886;47.036;15.466;2022-09-09T06:06:10;3.75;;;2.00;;
68097;SDS011;54886;47.036;15.466;2022-09-09T06:08:38;4.57;;;2.20;;
68097;SDS011;54886;47.036;15.466;2022-09-09T06:11:09;4.60;;;2.50;;
68097;SDS011;54886;47.036;15.466;2022-09-09T06:13:37;4.75;;;2.42;;
68097;SDS011;54886;47.036;15.466;2022-09-09T06:16:04;5.75;;;2.30;;
68097;SDS011;54886;47.036;15.466;2022-09-09T06:18:30;6.07;;;2.60;;
68097;SDS011;54886;47.036;15.466;2022-09-09T06:21:02;4.20;;;2.42;;
68097;SDS011;54886;47.036;15.466;2022-09-09T06:23:29;6.65;;;2.40;;
68097;SDS011;54886;47.036;15.466;2022-09-09T06:28:35;5.22;;;2.42;;
68097;SDS011;54886;47.036;15.466;2022-09-09T06:31:02;4.00;;;2.47;;
68097;SDS011;54886;47.036;15.466;2022-09-09T06:33:39;3.53;;;2.20;;
68097;SDS011;54886;47.036;15.466;2022-09-09T06:36:13;3.70;;;2.20;;
68097;SDS011;54886;47.036;15.466;2022-09-09T06:38:40;4.63;;;2.40;;
68097;SDS011;54886;47.036;15.466;2022-09-09T06:41:10;8.15;;;2.45;;
68097;SDS011;54886;47.036;15.466;2022-09-09T06:43:37;7.22;;;2.40;;
68097;SDS011;54886;47.036;15.466;2022-09-09T06:46:04;4.18;;;2.58;;
68097;SDS011;54886;47.036;15.466;2022-09-09T06:48:53;5.18;;;2.40;;
68097;SDS011;54886;47.036;15.466;2022-09-09T06:51:21;6.18;;;2.70;;
68097;SDS011;54886;47.036;15.466;2022-09-09T06:53:51;8.15;;;2.72;;
68097;SDS011;54886;47.036;15.466;2022-09-09T06:56:24;5.10;;;2.45;;
68097;SDS011;54886;47.036;15.466;2022-09-09T06:58:55;5.70;;;2.60;;
68097;SDS011;54886;47.036;15.466;2022-09-09T07:01:24;5.45;;;2.60;;
68097;SDS011;54886;47.036;15.466;2022-09-09T07:03:52;7.85;;;2.50;;
68097;SDS011;54886;47.036;15.466;2022-09-09T07:06:21;11.35;;;2.83;;
68097;SDS011;54886;47.036;15.466;2022-09-09T07:08:52;4.90;;;2.65;;
68097;SDS011;54886;47.036;15.466;2022-09-09T07:11:20;9.20;;;2.88;;
68097;SDS011;54886;47.036;15.466;2022-09-09T07:13:47;5.78;;;2.67;;
68097;SDS011;54886;47.036;15.466;2022-09-09T07:16:15;10.00;;;2.92;;
68097;SDS011;54886;47.036;15.466;2022-09-09T07:18:42;7.40;;;2.78;;
68097;SDS011;54886;47.036;15.466;2022-09-09T07:21:11;6.43;;;2.53;;
68097;SDS011;54886;47.036;15.466;2022-09-09T07:23:38;13.13;;;3.00;;
68097;SDS011;54886;47.036;15.466;2022-09-09T07:26:10;12.05;;;3.10;;
68097;SDS011;54886;47.036;15.466;2022-09-09T07:28:38;12.90;;;2.75;;
68097;SDS011;54886;47.036;15.466;2022-09-09T07:31:05;9.27;;;2.83;;
68097;SDS011;54886;47.036;15.466;2022-09-09T07:33:33;7.05;;;2.67;;
68097;SDS011;54886;47.036;15.466;2022-09-09T07:36:05;8.02;;;3.03;;
68097;SDS011;54886;47.036;15.466;2022-09-09T07:38:41;6.32;;;2.90;;
68097;SDS011;54886;47.036;15.466;2022-09-09T07:41:10;10.25;;;3.00;;
68097;SDS011;54886;47.036;15.466;2022-09-09T07:43:44;8.93;;;2.90;;
68097;SDS011;54886;47.036;15.466;2022-09-09T07:46:10;8.55;;;3.00;;
68097;SDS011;54886;47.036;15.466;2022-09-09T07:48:38;5.70;;;3.13;;
68097;SDS011;54886;47.036;15.466;2022-09-09T07:51:09;10.20;;;2.80;;
68097;SDS011;54886;47.036;15.466;2022-09-09T07:53:36;9.95;;;3.53;;
68097;SDS011;54886;47.036;15.466;2022-09-09T07:56:07;3.60;;;2.35;;
68097;SDS011;54886;47.036;15.466;2022-09-09T07:58:35;5.93;;;3.00;;
68097;SDS011;54886;47.036;15.466;2022-09-09T08:01:12;7.93;;;2.70;;
68097;SDS011;54886;47.036;15.466;2022-09-09T08:03:39;10.27;;;2.95;;
68097;SDS011;54886;47.036;15.466;2022-09-09T08:06:06;5.25;;;2.80;;
68097;SDS011;54886;47.036;15.466;2022-09-09T08:08:33;7.80;;;2.85;;
68097;SDS011;54886;47.036;15.466;2022-09-09T08:11:07;7.00;;;2.80;;
68097;SDS011;54886;47.036;15.466;2022-09-09T08:13:37;6.18;;;2.80;;
68097;SDS011;54886;47.036;15.466;2022-09-09T08:16:11;6.67;;;2.83;;
68097;SDS011;54886;47.036;15.466;2022-09-09T08:18:39;10.13;;;2.83;;
68097;SDS011;54886;47.036;15.466;2022-09-09T08:21:08;9.25;;;2.70;;
68097;SDS011;54886;47.036;15.466;2022-09-09T08:23:40;8.25;;;2.72;;
68097;SDS011;54886;47.036;15.466;2022-09-09T08:26:09;6.45;;;2.90;;
68097;SDS011;54886;47.036;15.466;2022-09-09T08:28:37;8.98;;;2.83;;
68097;SDS011;54886;47.036;15.466;2022-09-09T08:31:09;7.00;;;3.03;;
68097;SDS011;54886;47.036;15.466;2022-09-09T08:33:35;8.52;;;3.10;;
68097;SDS011;54886;47.036;15.466;2022-09-09T08:36:03;6.78;;;3.10;;
68097;SDS011;54886;47.036;15.466;2022-09-09T08:38:29;8.15;;;2.85;;
68097;SDS011;54886;47.036;15.466;2022-09-09T08:40:56;8.32;;;3.10;;
68097;SDS011;54886;47.036;15.466;2022-09-09T08:43:31;8.20;;;3.22;;
68097;SDS011;54886;47.036;15.466;2022-09-09T08:46:00;5.82;;;2.90;;
68097;SDS011;54886;47.036;15.466;2022-09-09T08:48:47;8.13;;;2.70;;
68097;SDS011;54886;47.036;15.466;2022-09-09T08:51:25;9.10;;;3.17;;
68097;SDS011;54886;47.036;15.466;2022-09-09T08:53:53;7.00;;;2.85;;
68097;SDS011;54886;47.036;15.466;2022-09-09T08:58:49;8.13;;;2.72;;
68097;SDS011;54886;47.036;15.466;2022-09-09T09:11:38;9.38;;;3.10;;
68097;SDS011;54886;47.036;15.466;2022-09-09T09:14:23;10.00;;;3.08;;
68097;SDS011;54886;47.036;15.466;2022-09-09T09:19:19;7.65;;;2.90;;
68097;SDS011;54886;47.036;15.466;2022-09-09T09:22:34;6.40;;;3.10;;
68097;SDS011;54886;47.036;15.466;2022-09-09T09:27:24;6.28;;;2.85;;
68097;SDS011;54886;47.036;15.466;2022-09-09T09:29:53;6.72;;;2.90;;
68097;SDS011;54886;47.036;15.466;2022-09-09T09:32:22;6.65;;;2.88;;
68097;SDS011;54886;47.036;15.466;2022-09-09T09:34:51;5.68;;;2.65;;
68097;SDS011;54886;47.036;15.466;2022-09-09T09:37:33;7.53;;;2.90;;
68097;SDS011;54886;47.036;15.466;2022-09-09T09:40:09;5.07;;;2.47;;
68097;SDS011;54886;47.036;15.466;2022-09-09T09:42:48;7.78;;;3.55;;
68097;SDS011;54886;47.036;15.466;2022-09-09T09:45:23;8.60;;;3.03;;
68097;SDS011;54886;47.036;15.466;2022-09-09T09:48:03;5.47;;;2.58;;
68097;SDS011;54886;47.036;15.466;2022-09-09T09:50:30;6.40;;;2.80;;
68097;SDS011;54886;47.036;15.466;2022-09-09T09:52:59;5.00;;;2.40;;
68097;SDS011;54886;47.036;15.466;2022-09-09T09:55:29;7.00;;;2.53;;
68097;SDS011;54886;47.036;15.466;2022-09-09T10:00:29;7.32;;;2.25;;
68097;SDS011;54886;47.036;15.466;2022-09-09T10:02:55;5.45;;;2.50;;
68097;SDS011;54886;47.036;15.466;2022-09-09T10:05:25;4.72;;;2.42;;
68097;SDS011;54886;47.036;15.466;2022-09-09T10:08:12;6.15;;;2.55;;
68097;SDS011;54886;47.036;15.466;2022-09-09T10:10:46;4.43;;;2.53;;
68097;SDS011;54886;47.036;15.466;2022-09-09T10:18:46;5.88;;;2.38;;
68097;SDS011;54886;47.036;15.466;2022-09-09T10:37:47;6.55;;;2.53;;
68097;SDS011;54886;47.036;15.466;2022-09-09T10:40:34;4.50;;;2.10;;
68097;SDS011;54886;47.036;15.466;2022-09-09T10:57:08;5.45;;;2.05;;
68097;SDS011;54886;47.036;15.466;2022-09-09T10:59:39;4.80;;;2.40;;
68097;SDS011;54886;47.036;15.466;2022-09-09T11:04:42;4.78;;;2.17;;
68097;SDS011;54886;47.036;15.466;2022-09-09T11:07:18;5.18;;;1.98;;
68097;SDS011;54886;47.036;15.466;2022-09-09T11:09:52;4.95;;;1.92;;
68097;SDS011;54886;47.036;15.466;2022-09-09T11:12:27;3.13;;;1.85;;
68097;SDS011;54886;47.036;15.466;2022-09-09T11:15:01;2.88;;;1.80;;
68097;SDS011;54886;47.036;15.466;2022-09-09T11:17:40;5.55;;;1.70;;
68097;SDS011;54886;47.036;15.466;2022-09-09T11:20:14;3.42;;;1.70;;
68097;SDS011;54886;47.036;15.466;2022-09-09T11:28:40;4.07;;;1.88;;
68097;SDS011;54886;47.036;15.466;2022-09-09T11:32:00;2.63;;;1.70;;
68097;SDS011;54886;47.036;15.466;2022-09-09T11:42:05;5.22;;;1.80;;
68097;SDS011;54886;47.036;15.466;2022-09-09T11:44:37;3.03;;;1.70;;
68097;SDS011;54886;47.036;15.466;2022-09-09T11:47:02;2.75;;;1.60;;
68097;SDS011;54886;47.036;15.466;2022-09-09T11:49:28;2.88;;;1.75;;
68097;SDS011;54886;47.036;15.466;2022-09-09T11:54:48;5.68;;;1.52;;
68097;SDS011;54886;47.036;15.466;2022-09-09T11:57:34;4.75;;;1.70;;
68097;SDS011;54886;47.036;15.466;2022-09-09T12:00:01;2.47;;;1.70;;
68097;SDS011;54886;47.036;15.466;2022-09-09T12:02:28;2.58;;;1.55;;
68097;SDS011;54886;47.036;15.466;2022-09-09T12:05:07;4.07;;;1.48;;
68097;SDS011;54886;47.036;15.466;2022-09-09T12:15:53;3.55;;;1.70;;
68097;SDS011;54886;47.036;15.466;2022-09-09T12:23:41;2.75;;;1.60;;
68097;SDS011;54886;47.036;15.466;2022-09-09T12:26:28;3.42;;;1.70;;
68097;SDS011;54886;47.036;15.466;2022-09-09T12:29:44;4.90;;;1.80;;
68097;SDS011;54886;47.036;15.466;2022-09-09T12:34:42;4.15;;;1.83;;
68097;SDS011;54886;47.036;15.466;2022-09-09T12:37:27;1.92;;;1.60;;
68097;SDS011;54886;47.036;15.466;2022-09-09T12:39:58;2.83;;;1.75;;
68097;SDS011;54886;47.036;15.466;2022-09-09T12:42:25;2.92;;;1.90;;
68097;SDS011;54886;47.036;15.466;2022-09-09T12:44:56;3.20;;;2.00;;
68097;SDS011;54886;47.036;15.466;2022-09-09T12:47:27;5.70;;;1.77;;
68097;SDS011;54886;47.036;15.466;2022-09-09T12:49:54;2.38;;;1.70;;
68097;SDS011;54886;47.036;15.466;2022-09-09T12:52:26;2.22;;;1.80;;
68097;SDS011;54886;47.036;15.466;2022-09-09T12:54:55;3.00;;;1.80;;
68097;SDS011;54886;47.036;15.466;2022-09-09T12:57:22;2.15;;;1.70;;
68097;SDS011;54886;47.036;15.466;2022-09-09T12:59:50;5.38;;;1.70;;
68097;SDS011;54886;47.036;15.466;2022-09-09T13:02:18;4.30;;;1.80;;
68097;SDS011;54886;47.036;15.466;2022-09-09T13:04:45;3.30;;;1.75;;
68097;SDS011;54886;47.036;15.466;2022-09-09T13:07:12;2.08;;;1.63;;
68097;SDS011;54886;47.036;15.466;2022-09-09T13:09:38;2.92;;;1.60;;
68097;SDS011;54886;47.036;15.466;2022-09-09T13:12:05;2.53;;;1.50;;
68097;SDS011;54886;47.036;15.466;2022-09-09T13:14:38;2.67;;;1.70;;
68097;SDS011;54886;47.036;15.466;2022-09-09T13:17:04;4.20;;;1.58;;
68097;SDS011;54886;47.036;15.466;2022-09-09T13:19:43;3.47;;;1.75;;
68097;SDS011;54886;47.036;15.466;2022-09-09T13:22:20;3.05;;;1.60;;
68097;SDS011;54886;47.036;15.466;2022-09-09T13:24:58;2.42;;;1.60;;
68097;SDS011;54886;47.036;15.466;2022-09-09T13:27:38;7.75;;;1.85;;
68097;SDS011;54886;47.036;15.466;2022-09-09T13:33:03;2.03;;;1.60;;
68097;SDS011;54886;47.036;15.466;2022-09-09T13:35:53;3.92;;;1.63;;
68097;SDS011;54886;47.036;15.466;2022-09-09T13:38:20;4.22;;;1.75;;
68097;SDS011;54886;47.036;15.466;2022-09-09T13:40:56;3.65;;;1.60;;
68097;SDS011;54886;47.036;15.466;2022-09-09T13:45:53;2.90;;;1.60;;
68097;SDS011;54886;47.036;15.466;2022-09-09T13:48:21;4.60;;;1.58;;
68097;SDS011;54886;47.036;15.466;2022-09-09T13:50:57;3.33;;;1.80;;
68097;SDS011;54886;47.036;15.466;2022-09-09T13:53:25;1.50;;;1.40;;
68097;SDS011;54886;47.036;15.466;2022-09-09T13:55:51;3.30;;;1.75;;
68097;SDS011;54886;47.036;15.466;2022-09-09T13:58:17;3.60;;;1.85;;
68097;SDS011;54886;47.036;15.466;2022-09-09T14:00:44;2.63;;;1.80;;
68097;SDS011;54886;47.036;15.466;2022-09-09T14:03:10;3.15;;;1.75;;
68097;SDS011;54886;47.036;15.466;2022-09-09T14:05:36;4.32;;;1.67;;
68097;SDS011;54886;47.036;15.466;2022-09-09T14:08:06;3.45;;;1.65;;
68097;SDS011;54886;47.036;15.466;2022-09-09T14:10:32;2.03;;;1.60;;
68097;SDS011;54886;47.036;15.466;2022-09-09T14:13:00;2.88;;;1.60;;
68097;SDS011;54886;47.036;15.466;2022-09-09T14:15:26;3.20;;;1.75;;
68097;SDS011;54886;47.036;15.466;2022-09-09T14:17:52;4.97;;;1.90;;
68097;SDS011;54886;47.036;15.466;2022-09-09T14:20:17;2.45;;;1.70;;
68097;SDS011;54886;47.036;15.466;2022-09-09T14:22:44;3.40;;;2.38;;
68097;SDS011;54886;47.036;15.466;2022-09-09T14:25:09;3.38;;;1.92;;
68097;SDS011;54886;47.036;15.466;2022-09-09T14:27:36;4.45;;;2.35;;
68097;SDS011;54886;47.036;15.466;2022-09-09T14:30:04;19.02;;;7.32;;
68097;SDS011;54886;47.036;15.466;2022-09-09T14:32:30;14.82;;;6.65;;
68097;SDS011;54886;47.036;15.466;2022-09-09T14:34:55;12.15;;;5.03;;
68097;SDS011;54886;47.036;15.466;2022-09-09T14:37:21;8.77;;;2.47;;
68097;SDS011;54886;47.036;15.466;2022-09-09T14:39:46;17.42;;;7.30;;
68097;SDS011;54886;47.036;15.466;2022-09-09T14:42:13;6.18;;;2.50;;
68097;SDS011;54886;47.036;15.466;2022-09-09T14:44:38;3.80;;;2.20;;
68097;SDS011;54886;47.036;15.466;2022-09-09T14:47:05;4.38;;;2.10;;
68097;SDS011;54886;47.036;15.466;2022-09-09T14:49:31;3.85;;;1.92;;
68097;SDS011;54886;47.036;15.466;2022-09-09T14:51:56;5.45;;;2.55;;
68097;SDS011;54886;47.036;15.466;2022-09-09T14:54:22;3.97;;;2.00;;
68097;SDS011;54886;47.036;15.466;2022-09-09T14:56:48;4.72;;;2.08;;
68097;SDS011;54886;47.036;15.466;2022-09-09T14:59:13;9.32;;;4.60;;
68097;SDS011;54886;47.036;15.466;2022-09-09T15:01:39;4.40;;;2.00;;
68097;SDS011;54886;47.036;15.466;2022-09-09T15:04:05;6.15;;;2.38;;
68097;SDS011;54886;47.036;15.466;2022-09-09T15:06:32;6.05;;;2.08;;
68097;SDS011;54886;47.036;15.466;2022-09-09T15:08:59;2.50;;;1.90;;
68097;SDS011;54886;47.036;15.466;2022-09-09T15:11:26;7.82;;;3.03;;
68097;SDS011;54886;47.036;15.466;2022-09-09T15:13:53;6.80;;;3.03;;
68097;SDS011;54886;47.036;15.466;2022-09-09T15:16:19;7.05;;;2.30;;
68097;SDS011;54886;47.036;15.466;2022-09-09T15:18:46;3.55;;;2.20;;
68097;SDS011;54886;47.036;15.466;2022-09-09T15:21:13;4.70;;;2.22;;
68097;SDS011;54886;47.036;15.466;2022-09-09T15:23:44;6.20;;;2.83;;
68097;SDS011;54886;47.036;15.466;2022-09-09T15:26:10;3.90;;;2.03;;
68097;SDS011;54886;47.036;15.466;2022-09-09T15:28:38;2.88;;;2.00;;
68097;SDS011;54886;47.036;15.466;2022-09-09T15:31:07;4.32;;;2.22;;
68097;SDS011;54886;47.036;15.466;2022-09-09T15:33:35;2.80;;;2.00;;
68097;SDS011;54886;47.036;15.466;2022-09-09T15:36:12;7.65;;;2.50;;
68097;SDS011;54886;47.036;15.466;2022-09-09T15:38:45;5.25;;;2.50;;
68097;SDS011;54886;47.036;15.466;2022-09-09T15:41:11;2.58;;;1.92;;
68097;SDS011;54886;47.036;15.466;2022-09-09T15:43:37;4.28;;;2.13;;
68097;SDS011;54886;47.036;15.466;2022-09-09T15:48:52;5.43;;;2.22;;
68097;SDS011;54886;47.036;15.466;2022-09-09T15:51:19;4.95;;;2.28;;
68097;SDS011;54886;47.036;15.466;2022-09-09T15:53:45;7.45;;;3.53;;
68097;SDS011;54886;47.036;15.466;2022-09-09T15:56:10;4.68;;;2.40;;
68097;SDS011;54886;47.036;15.466;2022-09-09T15:58:36;5.78;;;2.17;;
68097;SDS011;54886;47.036;15.466;2022-09-09T16:01:05;2.95;;;2.20;;
68097;SDS011;54886;47.036;15.466;2022-09-09T16:03:38;5.20;;;2.00;;
68097;SDS011;54886;47.036;15.466;2022-09-09T16:06:11;3.85;;;1.98;;
68097;SDS011;54886;47.036;15.466;2022-09-09T16:08:39;4.85;;;2.20;;
68097;SDS011;54886;47.036;15.466;2022-09-09T16:11:16;3.05;;;2.00;;
68097;SDS011;54886;47.036;15.466;2022-09-09T16:13:45;2.83;;;1.95;;
68097;SDS011;54886;47.036;15.466;2022-09-09T16:16:12;4.53;;;2.40;;
68097;SDS011;54886;47.036;15.466;2022-09-09T16:18:48;3.85;;;1.92;;
68097;SDS011;54886;47.036;15.466;2022-09-09T16:23:44;3.45;;;1.90;;
68097;SDS011;54886;47.036;15.466;2022-09-09T16:26:13;4.40;;;2.15;;
68097;SDS011;54886;47.036;15.466;2022-09-09T16:28:40;3.47;;;1.90;;
68097;SDS011;54886;47.036;15.466;2022-09-09T16:31:10;4.75;;;2.03;;
68097;SDS011;54886;47.036;15.466;2022-09-09T16:33:39;4.75;;;2.10;;
68097;SDS011;54886;47.036;15.466;2022-09-09T16:36:05;2.65;;;1.80;;
68097;SDS011;54886;47.036;15.466;2022-09-09T16:38:35;3.35;;;2.10;;
68097;SDS011;54886;47.036;15.466;2022-09-09T16:41:05;5.07;;;2.10;;
68097;SDS011;54886;47.036;15.466;2022-09-09T16:43:35;2.67;;;1.90;;
68097;SDS011;54886;47.036;15.466;2022-09-09T16:46:02;3.25;;;1.95;;
68097;SDS011;54886;47.036;15.466;2022-09-09T16:48:32;3.83;;;2.10;;
68097;SDS011;54886;47.036;15.466;2022-09-09T16:51:04;4.40;;;2.17;;
68097;SDS011;54886;47.036;15.466;2022-09-09T16:53:31;2.90;;;1.90;;
68097;SDS011;54886;47.036;15.466;2022-09-09T16:55:57;3.83;;;2.15;;
68097;SDS011;54886;47.036;15.466;2022-09-09T16:58:23;3.75;;;2.00;;
68097;SDS011;54886;47.036;15.466;2022-09-09T17:00:48;4.90;;;2.10;;
68097;SDS011;54886;47.036;15.466;2022-09-09T17:03:14;4.05;;;2.10;;
68097;SDS011;54886;47.036;15.466;2022-09-09T17:05:40;2.95;;;2.05;;
68097;SDS011;54886;47.036;15.466;2022-09-09T17:08:06;5.60;;;2.30;;
68097;SDS011;54886;47.036;15.466;2022-09-09T17:10:32;5.13;;;2.45;;
68097;SDS011;54886;47.036;15.466;2022-09-09T17:12:57;3.15;;;2.10;;